TimeCST,TemperatureF,Dew PointF,Humidity,Sea Level PressureIn,VisibilityMPH,Wind Direction,Wind SpeedMPH,Gust SpeedMPH,PrecipitationIn,Events,Conditions,WindDirDegrees,DateUTC
12:51 AM,50.0,12.0,22,29.54,10.0,SW,11.5,19.6,N/A,,Clear,230,2013-02-18 06:51:00
1:51 AM,48.9,12.0,23,29.52,10.0,SW,16.1,21.9,N/A,,Clear,220,2013-02-18 07:51:00
2:51 AM,45.0,14.0,29,29.54,10.0,West,6.9,-,N/A,,Clear,260,2013-02-18 08:51:00
3:51 AM,44.1,12.9,28,29.60,10.0,WNW,11.5,18.4,N/A,,Clear,300,2013-02-18 09:51:00
4:51 AM,42.1,19.0,40,29.63,10.0,NNW,4.6,-,N/A,,Clear,330,2013-02-18 10:51:00
5:51 AM,41.0,21.9,47,29.69,10.0,NNW,11.5,19.6,N/A,,Clear,330,2013-02-18 11:51:00
6:51 AM,39.0,23.0,53,29.75,10.0,North,17.3,27.6,N/A,,Clear,350,2013-02-18 12:51:00
7:51 AM,37.9,21.9,53,29.79,10.0,NNW,18.4,28.8,N/A,,Clear,330,2013-02-18 13:51:00
8:51 AM,39.0,21.9,50,29.88,10.0,NNW,15.0,24.2,N/A,,Partly Cloudy,340,2013-02-18 14:51:00
10:51 AM,43.0,21.9,43,29.96,10.0,North,24.2,34.5,N/A,,Overcast,350,2013-02-18 16:51:00
11:51 AM,45.0,21.9,40,29.98,10.0,North,19.6,29.9,N/A,,Mostly Cloudy,350,2013-02-18 17:51:00
12:51 PM,48.0,19.9,33,29.97,10.0,North,20.7,29.9,N/A,,Mostly Cloudy,360,2013-02-18 18:51:00
1:51 PM,48.9,17.1,28,29.97,10.0,North,20.7,31.1,N/A,,Overcast,360,2013-02-18 19:51:00
2:51 PM,50.0,12.9,23,29.97,10.0,North,19.6,27.6,N/A,,Overcast,350,2013-02-18 20:51:00
3:51 PM,51.1,12.9,22,29.98,10.0,North,19.6,28.8,N/A,,Clear,350,2013-02-18 21:51:00
4:51 PM,51.1,10.0,19,30.00,10.0,NNW,17.3,24.2,N/A,,Clear,340,2013-02-18 22:51:00
5:51 PM,50.0,10.0,20,30.02,10.0,NNW,13.8,-,N/A,,Clear,340,2013-02-18 23:51:00
6:51 PM,46.0,10.9,24,30.06,10.0,North,5.8,-,N/A,,Clear,350,2013-02-19 00:51:00
7:51 PM,45.0,10.9,25,30.08,10.0,Calm,Calm,-,N/A,,Clear,0,2013-02-19 01:51:00
8:51 PM,43.0,10.9,27,30.10,10.0,Calm,Calm,-,N/A,,Clear,0,2013-02-19 02:51:00
9:51 PM,42.1,12.0,29,30.12,10.0,East,3.5,-,N/A,,Clear,80,2013-02-19 03:51:00
10:51 PM,39.0,12.9,34,30.13,10.0,Calm,Calm,-,N/A,,Clear,0,2013-02-19 04:51:00
11:51 PM,36.0,15.1,43,30.14,10.0,Calm,Calm,-,N/A,,Clear,0,2013-02-19 05:51:00